Time;durP1;ratioP1;P1;durP2;ratioP2;P2;SDS_P1;SDS_P2;PMS_P1;PMS_P2;Temp;Humidity;BMP_temperature;BMP_pressure;BME280_temperature;BME280_humidity;BME280_pressure;Samples;Min_cycle;Max_cycle;Signal;HPM_P1;HPM_P2
2023/01/18 00:01:33;;;;;;;133.27;50.53;;;;;;;;;;4944011;28;20047;-47
2023/01/18 00:03:59;;;;;;;136.52;51.70;;;;;;;;;;4939615;28;20134;-47
2023/01/18 00:06:29;;;;;;;177.55;56.60;;;;;;;;;;4943084;28;20046;-47
2023/01/18 00:08:55;;;;;;;185.63;62.50;;;;;;;;;;4938507;28;20074;-48
2023/01/18 00:11:22;;;;;;;122.20;48.28;;;;;;;;;;4944415;28;20062;-47
2023/01/18 00:13:48;;;;;;;133.88;52.10;;;;;;;;;;4942118;28;20046;-48
2023/01/18 00:16:16;;;;;;;133.63;47.80;;;;;;;;;;4941038;28;20058;-48
2023/01/18 00:18:48;;;;;;;125.90;46.75;;;;;;;;;;4942735;28;20035;-47
2023/01/18 00:21:14;;;;;;;132.60;49.95;;;;;;;;;;4944928;29;20544;-45
2023/01/18 00:23:41;;;;;;;131.57;47.13;;;;;;;;;;4944338;28;20039;-49
2023/01/18 00:26:09;;;;;;;118.30;44.17;;;;;;;;;;4942296;29;20043;-49
2023/01/18 00:28:36;;;;;;;121.80;47.00;;;;;;;;;;4941663;29;20050;-49
2023/01/18 00:31:19;;;;;;;130.38;46.40;;;;;;;;;;4961140;28;20044;-48
2023/01/18 00:33:46;;;;;;;142.40;52.55;;;;;;;;;;4942670;28;20177;-47
2023/01/18 00:36:14;;;;;;;149.32;48.50;;;;;;;;;;4942738;29;20054;-49
2023/01/18 00:38:40;;;;;;;123.47;46.30;;;;;;;;;;4943044;29;20498;-50
2023/01/18 00:41:07;;;;;;;119.88;46.95;;;;;;;;;;4948132;28;20410;-48
2023/01/18 00:43:39;;;;;;;129.57;47.58;;;;;;;;;;4942642;28;20044;-48
2023/01/18 00:46:07;;;;;;;137.75;49.92;;;;;;;;;;4943092;29;20859;-49
2023/01/18 00:48:34;;;;;;;122.70;45.53;;;;;;;;;;4946481;28;20134;-51
2023/01/18 00:51:01;;;;;;;133.20;47.58;;;;;;;;;;4947860;28;20070;-48
2023/01/18 00:53:27;;;;;;;136.73;49.13;;;;;;;;;;4944627;28;20532;-47
2023/01/18 00:55:54;;;;;;;117.75;45.25;;;;;;;;;;4944762;29;20051;-46
2023/01/18 00:58:20;;;;;;;132.07;47.10;;;;;;;;;;4943663;28;20039;-47
2023/01/18 01:00:49;;;;;;;120.28;45.03;;;;;;;;;;4943495;28;20057;-47
2023/01/18 01:03:15;;;;;;;126.60;47.35;;;;;;;;;;4954328;28;20047;-47
2023/01/18 01:08:27;;;;;;;116.35;43.30;;;;;;;;;;4941302;29;20122;-45
2023/01/18 01:11:03;;;;;;;96.68;41.38;;;;;;;;;;4949037;28;20043;-51
2023/01/18 01:27:16;;;;;;;101.13;38.35;;;;;;;;;;4944497;28;20942;-47
2023/01/18 01:29:42;;;;;;;101.70;37.53;;;;;;;;;;4947896;28;20430;-46
2023/01/18 01:32:09;;;;;;;110.85;37.97;;;;;;;;;;4953951;28;20047;-47
2023/01/18 01:34:35;;;;;;;108.47;35.55;;;;;;;;;;4940103;28;20056;-48
2023/01/18 01:37:03;;;;;;;96.85;34.03;;;;;;;;;;4943649;29;20498;-46
2023/01/18 01:39:29;;;;;;;105.22;35.20;;;;;;;;;;4943498;28;20043;-51
2023/01/18 01:41:56;;;;;;;113.93;34.10;;;;;;;;;;4943222;29;20048;-47
2023/01/18 01:44:32;;;;;;;106.85;35.50;;;;;;;;;;4941912;29;20108;-48
2023/01/18 01:47:04;;;;;;;96.10;31.65;;;;;;;;;;4943308;29;20039;-46
2023/01/18 01:49:39;;;;;;;96.03;32.65;;;;;;;;;;4946422;29;20039;-47
2023/01/18 01:52:09;;;;;;;100.50;34.47;;;;;;;;;;4943704;28;20099;-47
2023/01/18 01:54:42;;;;;;;105.90;34.50;;;;;;;;;;4942912;28;20149;-50
2023/01/18 01:57:14;;;;;;;120.88;35.42;;;;;;;;;;4941874;29;20047;-49
2023/01/18 01:59:43;;;;;;;91.10;31.33;;;;;;;;;;4943359;29;20106;-46
2023/01/18 02:02:10;;;;;;;86.85;30.48;;;;;;;;;;4943345;29;20043;-48
2023/01/18 02:04:37;;;;;;;99.18;32.42;;;;;;;;;;4940671;28;20043;-48
2023/01/18 02:07:03;;;;;;;94.28;31.38;;;;;;;;;;4943063;28;20040;-46
2023/01/18 02:09:30;;;;;;;82.30;31.30;;;;;;;;;;4942017;28;20039;-47
2023/01/18 02:11:56;;;;;;;92.45;30.90;;;;;;;;;;4945177;28;20055;-48
2023/01/18 02:14:25;;;;;;;101.03;32.03;;;;;;;;;;4940960;28;20062;-45
2023/01/18 02:17:10;;;;;;;81.22;31.13;;;;;;;;;;4942073;28;20102;-45
2023/01/18 02:19:36;;;;;;;82.95;28.98;;;;;;;;;;4942892;28;20047;-48
2023/01/18 02:22:07;;;;;;;107.50;34.17;;;;;;;;;;4940349;28;20062;-44
2023/01/18 02:24:37;;;;;;;81.57;28.48;;;;;;;;;;4941346;29;20383;-50
2023/01/18 02:27:05;;;;;;;115.93;32.88;;;;;;;;;;4938919;29;20054;-48
2023/01/18 02:29:32;;;;;;;86.75;28.88;;;;;;;;;;4942984;28;20047;-49
2023/01/18 02:32:05;;;;;;;93.72;29.45;;;;;;;;;;4940006;29;20040;-45
2023/01/18 02:34:48;;;;;;;101.47;30.33;;;;;;;;;;4934978;28;20043;-45
2023/01/18 02:37:19;;;;;;;86.53;27.47;;;;;;;;;;4943593;28;20491;-47
2023/01/18 02:40:01;;;;;;;97.47;30.15;;;;;;;;;;4940984;28;20278;-49
2023/01/18 02:48:07;;;;;;;87.10;28.15;;;;;;;;;;4944949;28;20078;-46
2023/01/18 02:50:33;;;;;;;104.25;30.67;;;;;;;;;;4941792;29;20057;-46
2023/01/18 02:53:00;;;;;;;87.15;31.00;;;;;;;;;;4941898;29;20043;-49
2023/01/18 02:55:37;;;;;;;93.25;32.40;;;;;;;;;;4947969;29;20047;-46
2023/01/18 02:58:08;;;;;;;89.72;32.70;;;;;;;;;;4940647;29;20047;-48
2023/01/18 03:00:36;;;;;;;103.65;31.60;;;;;;;;;;4939364;29;20063;-48
2023/01/18 03:03:05;;;;;;;114.50;33.70;;;;;;;;;;4941960;28;20039;-46
2023/01/18 03:05:32;;;;;;;106.88;33.25;;;;;;;;;;4938933;28;20047;-46
2023/01/18 03:08:12;;;;;;;114.45;36.63;;;;;;;;;;4944162;28;20067;-46
2023/01/18 03:13:40;;;;;;;110.72;34.67;;;;;;;;;;5072322;28;20671;-49
2023/01/18 03:16:09;;;;;;;101.18;33.33;;;;;;;;;;5070224;28;20094;-47
2023/01/18 03:18:58;;;;;;;115.78;34.53;;;;;;;;;;5072806;28;20090;-50
2023/01/18 03:21:43;;;;;;;117.22;35.45;;;;;;;;;;5074090;28;20508;-50
2023/01/18 03:24:10;;;;;;;130.57;36.40;;;;;;;;;;5073959;28;20055;-50
2023/01/18 03:26:39;;;;;;;127.95;33.90;;;;;;;;;;5074566;28;20048;-50
2023/01/18 03:34:50;;;;;;;103.70;33.83;;;;;;;;;;5070372;28;20037;-48
2023/01/18 03:37:19;;;;;;;111.80;33.72;;;;;;;;;;5075620;28;20040;-48
2023/01/18 03:39:50;;;;;;;109.50;33.53;;;;;;;;;;5074170;28;20036;-52
2023/01/18 03:42:19;;;;;;;110.28;31.95;;;;;;;;;;5073407;28;20556;-47
2023/01/18 03:45:04;;;;;;;117.45;34.40;;;;;;;;;;5070326;28;20414;-47
2023/01/18 03:47:30;;;;;;;111.80;33.63;;;;;;;;;;5075781;28;20052;-48
2023/01/18 03:49:57;;;;;;;102.63;33.25;;;;;;;;;;5071813;28;20752;-50
2023/01/18 03:52:27;;;;;;;153.27;37.60;;;;;;;;;;5071119;28;20037;-47
2023/01/18 03:54:59;;;;;;;106.25;34.47;;;;;;;;;;5075903;28;20502;-49
2023/01/18 03:57:34;;;;;;;113.78;34.75;;;;;;;;;;5073013;28;20095;-48
2023/01/18 04:00:01;;;;;;;104.45;33.05;;;;;;;;;;5075763;28;20516;-46
2023/01/18 04:02:37;;;;;;;139.40;33.72;;;;;;;;;;5070611;28;20166;-47
2023/01/18 04:05:05;;;;;;;119.22;34.28;;;;;;;;;;5072137;28;20119;-49
2023/01/18 04:07:31;;;;;;;101.22;31.13;;;;;;;;;;5073557;28;20036;-46
2023/01/18 04:09:58;;;;;;;101.55;32.00;;;;;;;;;;5074543;28;20131;-48
2023/01/18 04:12:25;;;;;;;135.77;36.85;;;;;;;;;;5083907;28;20075;-51
2023/01/18 04:14:51;;;;;;;106.57;33.28;;;;;;;;;;5093125;28;20442;-49
2023/01/18 04:17:18;;;;;;;123.00;33.22;;;;;;;;;;5095104;28;20047;-51
2023/01/18 04:19:44;;;;;;;119.90;34.67;;;;;;;;;;5090014;28;20032;-47
2023/01/18 04:22:11;;;;;;;124.07;35.65;;;;;;;;;;5091491;28;20048;-49
2023/01/18 04:24:37;;;;;;;142.80;35.47;;;;;;;;;;5080347;28;20155;-49
2023/01/18 04:27:04;;;;;;;144.02;38.95;;;;;;;;;;5062972;28;20194;-50
2023/01/18 04:29:30;;;;;;;132.73;37.35;;;;;;;;;;5080218;28;20058;-47
2023/01/18 04:31:57;;;;;;;125.47;36.35;;;;;;;;;;5077559;28;20036;-47
2023/01/18 04:34:23;;;;;;;135.70;39.25;;;;;;;;;;5080863;28;20048;-47
2023/01/18 04:36:50;;;;;;;122.45;38.40;;;;;;;;;;5079330;28;20865;-47
2023/01/18 04:39:17;;;;;;;141.90;38.13;;;;;;;;;;5078559;28;20036;-51
2023/01/18 04:41:44;;;;;;;139.75;37.72;;;;;;;;;;5060677;28;20694;-49
2023/01/18 04:44:10;;;;;;;119.40;36.60;;;;;;;;;;5080620;28;20480;-47
2023/01/18 04:46:37;;;;;;;110.97;33.22;;;;;;;;;;5080497;28;20040;-48
2023/01/18 04:49:04;;;;;;;105.10;33.10;;;;;;;;;;5079706;28;20052;-48
2023/01/18 04:51:31;;;;;;;91.55;29.90;;;;;;;;;;5077874;28;20036;-47
2023/01/18 04:53:58;;;;;;;124.57;34.60;;;;;;;;;;5078971;28;20513;-47
2023/01/18 04:56:24;;;;;;;129.38;34.53;;;;;;;;;;5077658;28;20048;-47
2023/01/18 04:58:52;;;;;;;107.07;33.15;;;;;;;;;;5080481;28;20036;-48
2023/01/18 05:01:21;;;;;;;119.53;34.63;;;;;;;;;;5073192;28;20044;-46
2023/01/18 05:03:48;;;;;;;117.82;34.47;;;;;;;;;;5079088;28;20033;-47
2023/01/18 05:06:15;;;;;;;127.20;33.58;;;;;;;;;;5078593;28;20481;-49
2023/01/18 05:08:42;;;;;;;123.35;33.75;;;;;;;;;;5080449;28;20048;-49
2023/01/18 05:11:10;;;;;;;103.18;31.00;;;;;;;;;;5075846;28;20036;-48
2023/01/18 05:13:37;;;;;;;96.95;29.20;;;;;;;;;;5077231;28;20040;-48
2023/01/18 05:16:04;;;;;;;117.47;31.42;;;;;;;;;;5078585;28;20511;-46
2023/01/18 05:18:31;;;;;;;117.05;31.45;;;;;;;;;;5077123;28;20071;-48
2023/01/18 05:21:01;;;;;;;100.75;30.70;;;;;;;;;;5078778;28;20044;-48
2023/01/18 05:23:27;;;;;;;95.20;28.75;;;;;;;;;;5078067;28;20110;-47
2023/01/18 05:25:54;;;;;;;91.72;28.02;;;;;;;;;;5077111;28;20540;-48
2023/01/18 05:28:22;;;;;;;118.20;33.33;;;;;;;;;;5078826;28;20040;-49
2023/01/18 05:30:49;;;;;;;104.50;31.02;;;;;;;;;;5077922;28;20036;-50
2023/01/18 05:33:16;;;;;;;135.52;33.15;;;;;;;;;;5076339;28;20044;-49
2023/01/18 05:35:53;;;;;;;109.88;30.27;;;;;;;;;;5064064;28;20381;-47
2023/01/18 05:38:21;;;;;;;103.10;30.80;;;;;;;;;;5078708;28;20113;-47
2023/01/18 05:40:49;;;;;;;113.05;31.02;;;;;;;;;;5074320;28;20043;-47
2023/01/18 05:43:15;;;;;;;102.05;29.02;;;;;;;;;;5078802;28;20055;-48
2023/01/18 05:45:42;;;;;;;83.88;26.98;;;;;;;;;;5081542;28;20039;-52
2023/01/18 05:48:09;;;;;;;106.07;28.42;;;;;;;;;;5078240;28;20081;-47
2023/01/18 05:50:39;;;;;;;98.10;29.65;;;;;;;;;;5076092;28;20044;-47
2023/01/18 05:53:12;;;;;;;98.18;28.13;;;;;;;;;;5076517;28;20570;-48
2023/01/18 05:55:39;;;;;;;93.82;27.00;;;;;;;;;;5076507;28;20032;-49
2023/01/18 05:58:05;;;;;;;95.47;27.88;;;;;;;;;;5092585;28;20048;-50
2023/01/18 06:00:33;;;;;;;100.75;26.85;;;;;;;;;;5076390;28;20699;-49
2023/01/18 06:03:00;;;;;;;92.38;24.70;;;;;;;;;;5076875;28;20055;-51
2023/01/18 06:05:27;;;;;;;79.20;25.05;;;;;;;;;;5079406;28;20162;-46
2023/01/18 06:07:54;;;;;;;78.63;24.77;;;;;;;;;;5077271;28;20542;-48
2023/01/18 06:10:20;;;;;;;86.50;24.30;;;;;;;;;;5075472;28;20040;-50
2023/01/18 06:12:47;;;;;;;77.82;23.42;;;;;;;;;;5079379;28;20056;-47
2023/01/18 06:15:14;;;;;;;90.32;24.73;;;;;;;;;;5078417;28;20557;-46
2023/01/18 06:17:42;;;;;;;88.68;23.38;;;;;;;;;;5078200;28;20044;-50
2023/01/18 06:20:11;;;;;;;97.55;26.65;;;;;;;;;;5074788;28;20036;-52
2023/01/18 06:22:38;;;;;;;80.93;24.88;;;;;;;;;;5078971;28;20051;-46
2023/01/18 06:25:04;;;;;;;68.88;20.48;;;;;;;;;;5077861;28;20066;-46
2023/01/18 06:27:31;;;;;;;76.63;23.33;;;;;;;;;;5076355;28;20045;-48
2023/01/18 06:29:57;;;;;;;68.40;20.95;;;;;;;;;;5076834;28;20040;-47
2023/01/18 06:32:24;;;;;;;80.07;24.63;;;;;;;;;;5076006;28;20067;-47
2023/01/18 06:34:50;;;;;;;67.82;22.00;;;;;;;;;;5078770;28;20039;-48
2023/01/18 06:37:17;;;;;;;74.78;23.75;;;;;;;;;;5080432;28;20032;-46
2023/01/18 06:39:43;;;;;;;78.18;21.23;;;;;;;;;;5079590;28;20542;-47
2023/01/18 06:42:09;;;;;;;63.08;18.42;;;;;;;;;;5084130;28;20047;-46
2023/01/18 06:44:36;;;;;;;69.30;20.58;;;;;;;;;;5081865;28;20054;-47
2023/01/18 06:47:03;;;;;;;68.13;20.40;;;;;;;;;;5077132;28;20051;-47
2023/01/18 06:49:29;;;;;;;61.47;19.08;;;;;;;;;;5071959;28;20508;-47
2023/01/18 06:51:56;;;;;;;78.53;22.15;;;;;;;;;;5079139;28;20557;-48
2023/01/18 06:54:22;;;;;;;90.30;23.10;;;;;;;;;;5075092;28;20048;-47
2023/01/18 06:56:49;;;;;;;55.58;19.88;;;;;;;;;;5081923;28;20093;-46
2023/01/18 06:59:15;;;;;;;62.60;21.92;;;;;;;;;;5074330;28;20050;-46
2023/01/18 07:01:42;;;;;;;83.45;27.15;;;;;;;;;;5078964;28;20400;-51
2023/01/18 07:04:09;;;;;;;114.10;36.63;;;;;;;;;;5075337;28;20028;-49
2023/01/18 07:06:38;;;;;;;92.70;27.30;;;;;;;;;;5075422;28;20127;-48
2023/01/18 07:09:09;;;;;;;66.65;17.98;;;;;;;;;;5076104;28;20068;-47
2023/01/18 07:11:36;;;;;;;65.63;19.63;;;;;;;;;;5081038;28;20070;-47
2023/01/18 07:14:02;;;;;;;75.65;21.92;;;;;;;;;;5080626;28;20040;-46
2023/01/18 07:16:29;;;;;;;69.75;17.63;;;;;;;;;;5078063;28;20101;-46
2023/01/18 07:18:57;;;;;;;51.20;16.02;;;;;;;;;;5078101;28;20050;-47
2023/01/18 07:21:28;;;;;;;56.95;18.83;;;;;;;;;;5075649;28;20051;-50
2023/01/18 07:23:56;;;;;;;54.08;17.52;;;;;;;;;;5079491;28;20041;-47
2023/01/18 07:26:23;;;;;;;51.17;16.00;;;;;;;;;;5075891;28;20496;-46
2023/01/18 07:28:49;;;;;;;54.60;16.35;;;;;;;;;;5074898;28;20045;-46
2023/01/18 07:31:17;;;;;;;61.60;15.93;;;;;;;;;;5078467;28;20067;-46
2023/01/18 07:33:43;;;;;;;40.97;13.13;;;;;;;;;;5077061;28;20028;-47
2023/01/18 07:36:10;;;;;;;62.25;14.85;;;;;;;;;;5077225;28;20070;-47
2023/01/18 07:38:37;;;;;;;59.25;14.63;;;;;;;;;;5073661;28;20037;-48
2023/01/18 07:41:06;;;;;;;42.38;11.88;;;;;;;;;;5075944;28;20059;-52
2023/01/18 07:43:33;;;;;;;49.40;13.10;;;;;;;;;;5076377;28;20053;-47
2023/01/18 07:46:02;;;;;;;50.28;11.90;;;;;;;;;;5072887;28;20036;-46
2023/01/18 07:48:29;;;;;;;51.80;12.20;;;;;;;;;;5076226;28;20476;-49
2023/01/18 07:50:57;;;;;;;41.90;11.90;;;;;;;;;;5076376;28;20043;-47
2023/01/18 07:53:25;;;;;;;52.10;12.15;;;;;;;;;;5076275;28;20123;-49
2023/01/18 07:55:51;;;;;;;35.38;11.00;;;;;;;;;;5074777;28;20044;-48
2023/01/18 07:58:18;;;;;;;35.42;11.65;;;;;;;;;;5074461;28;20127;-49
2023/01/18 08:00:45;;;;;;;43.75;14.07;;;;;;;;;;5080921;28;20418;-47
2023/01/18 08:03:13;;;;;;;42.03;12.13;;;;;;;;;;5080630;28;20055;-47
2023/01/18 08:05:41;;;;;;;43.15;11.02;;;;;;;;;;5080952;28;20544;-48
2023/01/18 08:08:12;;;;;;;33.80;11.30;;;;;;;;;;5076809;28;20064;-49
2023/01/18 08:10:39;;;;;;;60.25;17.38;;;;;;;;;;5082383;28;20052;-50
2023/01/18 08:13:09;;;;;;;65.88;20.88;;;;;;;;;;5080820;28;20515;-48
2023/01/18 08:15:36;;;;;;;69.93;25.42;;;;;;;;;;5079887;28;20047;-50
2023/01/18 08:18:03;;;;;;;50.47;14.80;;;;;;;;;;5080123;28;20121;-50
2023/01/18 08:20:30;;;;;;;85.43;34.10;;;;;;;;;;5082592;28;20143;-47
2023/01/18 08:22:57;;;;;;;51.17;18.58;;;;;;;;;;5078607;28;20040;-49
2023/01/18 08:25:28;;;;;;;57.83;16.05;;;;;;;;;;5078337;28;20045;-51
2023/01/18 08:27:58;;;;;;;55.38;14.45;;;;;;;;;;5079497;28;20039;-47
2023/01/18 08:30:27;;;;;;;55.55;14.65;;;;;;;;;;5079155;28;20064;-47
2023/01/18 08:32:54;;;;;;;39.13;15.07;;;;;;;;;;5081416;28;20496;-48
2023/01/18 08:35:22;;;;;;;69.47;18.45;;;;;;;;;;5078584;28;20051;-47
2023/01/18 08:37:49;;;;;;;44.10;16.42;;;;;;;;;;5077158;28;20052;-47
2023/01/18 08:40:16;;;;;;;53.35;17.70;;;;;;;;;;5084506;28;20504;-49
2023/01/18 08:42:42;;;;;;;53.00;14.13;;;;;;;;;;5078159;28;20124;-47
2023/01/18 08:45:09;;;;;;;54.10;16.48;;;;;;;;;;5083496;28;20044;-46
2023/01/18 08:47:35;;;;;;;67.90;19.35;;;;;;;;;;5082888;28;20118;-51
2023/01/18 08:50:01;;;;;;;49.53;14.95;;;;;;;;;;5083884;28;20043;-47
2023/01/18 08:52:28;;;;;;;49.70;13.43;;;;;;;;;;5084908;28;20042;-47
2023/01/18 08:54:55;;;;;;;51.30;13.55;;;;;;;;;;5082127;28;20106;-46
2023/01/18 08:57:22;;;;;;;78.95;16.38;;;;;;;;;;5084777;28;20117;-46
2023/01/18 08:59:48;;;;;;;31.63;11.60;;;;;;;;;;5079182;28;20036;-47
2023/01/18 09:02:15;;;;;;;44.45;14.65;;;;;;;;;;5080578;28;20119;-51
2023/01/18 09:04:46;;;;;;;46.83;13.18;;;;;;;;;;5074697;28;20036;-49
2023/01/18 09:07:16;;;;;;;38.88;12.60;;;;;;;;;;5075469;28;20037;-51
2023/01/18 09:09:43;;;;;;;48.28;13.68;;;;;;;;;;5078683;28;20041;-48
2023/01/18 09:12:11;;;;;;;48.63;11.40;;;;;;;;;;5064456;28;20056;-49
2023/01/18 09:14:37;;;;;;;33.85;9.88;;;;;;;;;;5079543;28;20058;-47
2023/01/18 09:17:04;;;;;;;43.80;10.43;;;;;;;;;;5083381;28;20630;-47
2023/01/18 09:19:31;;;;;;;47.58;9.63;;;;;;;;;;5082574;28;20052;-47
2023/01/18 09:21:57;;;;;;;36.10;8.75;;;;;;;;;;5083736;28;20151;-48
2023/01/18 09:24:24;;;;;;;48.53;10.10;;;;;;;;;;5081926;28;20069;-47
2023/01/18 09:26:52;;;;;;;41.25;8.10;;;;;;;;;;5083130;28;20058;-47
2023/01/18 09:29:19;;;;;;;32.05;7.65;;;;;;;;;;5065964;28;20476;-48
2023/01/18 09:31:45;;;;;;;24.45;5.50;;;;;;;;;;5081737;28;20037;-50
2023/01/18 09:34:12;;;;;;;33.65;7.28;;;;;;;;;;5077384;28;20045;-47
2023/01/18 09:36:47;;;;;;;26.15;5.78;;;;;;;;;;5078720;28;20036;-48
2023/01/18 09:39:14;;;;;;;45.63;8.07;;;;;;;;;;5081887;28;20043;-46
2023/01/18 09:41:43;;;;;;;37.22;7.60;;;;;;;;;;5080424;28;20409;-47
2023/01/18 09:44:28;;;;;;;58.55;9.95;;;;;;;;;;5076624;28;20040;-48
2023/01/18 09:46:57;;;;;;;87.68;13.10;;;;;;;;;;5077838;28;20032;-47
2023/01/18 09:49:32;;;;;;;34.30;9.07;;;;;;;;;;5081576;28;20493;-47
2023/01/18 09:52:19;;;;;;;55.65;15.23;;;;;;;;;;5082154;28;20044;-46
2023/01/18 09:54:48;;;;;;;42.80;11.07;;;;;;;;;;4980298;28;20210;-46
2023/01/18 09:57:23;;;;;;;66.35;12.10;;;;;;;;;;4978046;28;20058;-47
2023/01/18 10:00:00;;;;;;;32.53;10.20;;;;;;;;;;4981456;28;20097;-46
2023/01/18 10:02:37;;;;;;;62.03;12.95;;;;;;;;;;4958441;28;20046;-47
2023/01/18 10:05:08;;;;;;;33.38;9.00;;;;;;;;;;4978580;28;20177;-47
2023/01/18 10:07:37;;;;;;;38.13;10.32;;;;;;;;;;4981165;28;20537;-49
2023/01/18 10:10:04;;;;;;;30.77;9.90;;;;;;;;;;4979364;28;20130;-46
2023/01/18 10:12:39;;;;;;;54.67;14.95;;;;;;;;;;4981447;28;20046;-47
2023/01/18 10:15:12;;;;;;;56.75;17.92;;;;;;;;;;4980721;28;20046;-47
2023/01/18 10:17:40;;;;;;;88.60;18.02;;;;;;;;;;4980511;28;20038;-47
2023/01/18 10:20:30;;;;;;;46.05;11.98;;;;;;;;;;4979161;28;20047;-48
2023/01/18 10:23:29;;;;;;;35.42;9.13;;;;;;;;;;4965434;28;20508;-46
2023/01/18 10:26:01;;;;;;;31.05;8.82;;;;;;;;;;4907856;29;20111;-48
2023/01/18 10:28:47;;;;;;;40.22;7.80;;;;;;;;;;4908486;29;20056;-48
2023/01/18 10:31:14;;;;;;;34.85;8.50;;;;;;;;;;4923223;28;20069;-47
2023/01/18 10:33:42;;;;;;;38.33;9.70;;;;;;;;;;4984754;28;20218;-47
2023/01/18 10:36:11;;;;;;;40.28;8.65;;;;;;;;;;4985742;28;20053;-46
2023/01/18 10:38:39;;;;;;;32.95;7.68;;;;;;;;;;4985997;28;20082;-47
2023/01/18 10:41:13;;;;;;;37.88;9.32;;;;;;;;;;4985342;28;20057;-47
2023/01/18 10:43:39;;;;;;;45.40;9.15;;;;;;;;;;4984952;28;20502;-48
2023/01/18 10:46:13;;;;;;;31.35;7.97;;;;;;;;;;4984568;28;20042;-46
2023/01/18 10:48:44;;;;;;;41.42;9.35;;;;;;;;;;4984723;28;20046;-46
2023/01/18 10:51:22;;;;;;;36.88;8.18;;;;;;;;;;4978059;28;20586;-48
2023/01/18 10:53:48;;;;;;;53.78;12.73;;;;;;;;;;4979582;28;20119;-47
2023/01/18 10:56:20;;;;;;;47.58;8.93;;;;;;;;;;4982455;28;20061;-48
2023/01/18 10:58:49;;;;;;;28.33;7.90;;;;;;;;;;4985308;28;20046;-48
2023/01/18 11:01:18;;;;;;;24.23;6.93;;;;;;;;;;5018358;28;20052;-48
2023/01/18 11:03:47;;;;;;;31.08;8.48;;;;;;;;;;5074810;28;20040;-48
2023/01/18 11:06:19;;;;;;;39.35;8.82;;;;;;;;;;5075728;28;20040;-46
2023/01/18 11:08:46;;;;;;;41.55;9.48;;;;;;;;;;5078121;28;20467;-47
2023/01/18 11:11:15;;;;;;;34.53;10.35;;;;;;;;;;5080737;28;20041;-47
2023/01/18 11:13:46;;;;;;;49.50;15.55;;;;;;;;;;5073188;28;20047;-49
2023/01/18 11:16:16;;;;;;;58.00;10.30;;;;;;;;;;5078214;28;20036;-50
2023/01/18 11:19:00;;;;;;;35.78;10.48;;;;;;;;;;5074935;28;20464;-49
2023/01/18 11:21:30;;;;;;;;;;;;;;;;;;5076857;28;20043;-46
2023/01/18 11:23:57;;;;;;;59.15;13.00;;;;;;;;;;5074805;28;19926;-47
2023/01/18 11:26:24;;;;;;;49.22;12.68;;;;;;;;;;5078961;28;20091;-46
2023/01/18 11:29:12;;;;;;;35.63;11.07;;;;;;;;;;5075671;28;20052;-48
2023/01/18 11:31:46;;;;;;;43.33;13.75;;;;;;;;;;5076240;28;20519;-48
2023/01/18 11:34:32;;;;;;;41.10;11.32;;;;;;;;;;5075250;28;20480;-46
2023/01/18 11:36:59;;;;;;;39.42;15.02;;;;;;;;;;5079896;28;20044;-47
2023/01/18 11:39:30;;;;;;;70.20;20.42;;;;;;;;;;5080935;28;20523;-46
2023/01/18 11:42:15;;;;;;;48.67;20.25;;;;;;;;;;5082200;28;20438;-46
2023/01/18 11:44:49;;;;;;;47.80;19.25;;;;;;;;;;5079322;28;20147;-48
2023/01/18 11:47:22;;;;;;;41.55;16.42;;;;;;;;;;5085315;28;20096;-47
2023/01/18 11:49:55;;;;;;;42.03;13.93;;;;;;;;;;5077998;28;20489;-49
2023/01/18 11:52:45;;;;;;;42.28;14.95;;;;;;;;;;5081344;28;20681;-46
2023/01/18 11:55:30;;;;;;;32.50;9.25;;;;;;;;;;5081498;28;20043;-47
2023/01/18 11:57:58;;;;;;;40.00;12.57;;;;;;;;;;5081337;28;20119;-48
2023/01/18 12:00:27;;;;;;;60.10;13.75;;;;;;;;;;5080705;28;20102;-47
2023/01/18 12:03:01;;;;;;;44.92;13.18;;;;;;;;;;5081694;28;20562;-50
2023/01/18 12:05:53;;;;;;;72.65;24.80;;;;;;;;;;5082940;28;20036;-48
2023/01/18 12:08:29;;;;;;;43.20;20.05;;;;;;;;;;5075333;28;20063;-47
2023/01/18 12:11:14;;;;;;;44.83;14.55;;;;;;;;;;5080743;28;20068;-50
2023/01/18 12:13:58;;;;;;;26.83;9.50;;;;;;;;;;5080109;28;20451;-51
2023/01/18 12:16:31;;;;;;;47.85;15.52;;;;;;;;;;5081274;28;20058;-51
2023/01/18 12:19:09;;;;;;;44.15;12.15;;;;;;;;;;5080377;28;20093;-49
2023/01/18 12:21:43;;;;;;;44.50;14.15;;;;;;;;;;5070561;28;20040;-51
2023/01/18 12:24:22;;;;;;;39.63;10.20;;;;;;;;;;5079666;28;20036;-47
2023/01/18 12:26:48;;;;;;;28.80;7.95;;;;;;;;;;5085405;28;20127;-48
2023/01/18 12:29:23;;;;;;;31.08;8.23;;;;;;;;;;5081781;28;20424;-50
2023/01/18 12:31:53;;;;;;;30.77;8.65;;;;;;;;;;5078928;28;20047;-48
2023/01/18 12:34:43;;;;;;;37.65;10.93;;;;;;;;;;5081022;28;20044;-50
2023/01/18 12:37:09;;;;;;;31.92;7.53;;;;;;;;;;5074793;28;20048;-51
2023/01/18 12:39:38;;;;;;;33.53;10.82;;;;;;;;;;5080323;28;20054;-46
2023/01/18 12:42:11;;;;;;;25.65;7.68;;;;;;;;;;5080359;28;20131;-47
2023/01/18 12:44:37;;;;;;;32.22;8.35;;;;;;;;;;5090636;28;20079;-49
2023/01/18 12:47:08;;;;;;;27.10;8.15;;;;;;;;;;5081673;28;20093;-49
2023/01/18 12:49:38;;;;;;;37.85;8.93;;;;;;;;;;5075352;28;20044;-49
2023/01/18 12:52:04;;;;;;;44.40;10.50;;;;;;;;;;5078443;28;20043;-51
2023/01/18 12:54:49;;;;;;;34.10;9.77;;;;;;;;;;5079895;28;20170;-48
2023/01/18 12:57:16;;;;;;;42.97;11.75;;;;;;;;;;5083015;28;20075;-48
2023/01/18 12:59:45;;;;;;;37.30;12.60;;;;;;;;;;5080833;28;20049;-47
2023/01/18 13:02:34;;;;;;;39.05;11.80;;;;;;;;;;5076999;28;20548;-48
2023/01/18 13:05:05;;;;;;;46.10;12.73;;;;;;;;;;5080263;28;20052;-48
2023/01/18 13:07:41;;;;;;;40.63;13.07;;;;;;;;;;5078659;28;20036;-46
2023/01/18 13:10:15;;;;;;;55.58;15.57;;;;;;;;;;5077750;28;20119;-46
2023/01/18 13:12:42;;;;;;;43.35;12.02;;;;;;;;;;5077395;28;20144;-47
2023/01/18 13:15:14;;;;;;;53.90;13.25;;;;;;;;;;5081451;28;20044;-48
2023/01/18 13:17:47;;;;;;;50.90;13.97;;;;;;;;;;5079417;28;20143;-47
2023/01/18 13:20:16;;;;;;;54.45;14.07;;;;;;;;;;5091006;28;20345;-47
2023/01/18 13:22:42;;;;;;;30.73;10.90;;;;;;;;;;5077626;28;20043;-47
2023/01/18 13:25:14;;;;;;;41.50;11.85;;;;;;;;;;5079231;28;20048;-47
2023/01/18 13:27:56;;;;;;;60.45;15.35;;;;;;;;;;5078163;28;20068;-47
2023/01/18 13:30:26;;;;;;;65.22;16.25;;;;;;;;;;5077866;28;20059;-46
2023/01/18 13:32:53;;;;;;;48.13;17.65;;;;;;;;;;5081376;28;20039;-47
2023/01/18 13:35:29;;;;;;;38.55;14.75;;;;;;;;;;5079749;28;20538;-47
2023/01/18 13:37:58;;;;;;;55.58;18.92;;;;;;;;;;5078047;28;20028;-47
2023/01/18 13:40:28;;;;;;;62.75;20.27;;;;;;;;;;5077240;28;20047;-47
2023/01/18 13:42:55;;;;;;;52.67;18.30;;;;;;;;;;5080785;28;20079;-47
2023/01/18 13:45:26;;;;;;;61.33;18.25;;;;;;;;;;5079518;28;20044;-47
2023/01/18 13:47:52;;;;;;;49.17;17.17;;;;;;;;;;5077172;28;20037;-50
2023/01/18 13:50:34;;;;;;;45.35;15.73;;;;;;;;;;5077932;28;20044;-50
2023/01/18 13:53:12;;;;;;;48.08;16.80;;;;;;;;;;5081444;28;20037;-47
2023/01/18 13:55:44;;;;;;;50.92;20.38;;;;;;;;;;5078874;28;20046;-50
2023/01/18 13:58:27;;;;;;;65.50;21.63;;;;;;;;;;5077415;28;20507;-46
2023/01/18 14:00:57;;;;;;;55.80;20.23;;;;;;;;;;5092948;28;20064;-47
2023/01/18 14:03:26;;;;;;;91.28;28.88;;;;;;;;;;5077898;28;20042;-46
2023/01/18 14:05:54;;;;;;;72.35;31.48;;;;;;;;;;5081100;28;20041;-48
2023/01/18 14:08:22;;;;;;;72.45;28.02;;;;;;;;;;5076074;28;20044;-48
2023/01/18 14:10:51;;;;;;;66.20;29.23;;;;;;;;;;5075077;28;20551;-47
2023/01/18 14:13:38;;;;;;;65.68;29.63;;;;;;;;;;5080360;28;20056;-47
2023/01/18 14:16:04;;;;;;;93.88;30.77;;;;;;;;;;5078913;28;20044;-46
2023/01/18 14:18:31;;;;;;;89.75;31.98;;;;;;;;;;5077932;28;20052;-47
2023/01/18 14:21:01;;;;;;;86.25;33.83;;;;;;;;;;5077940;28;20048;-47
2023/01/18 14:23:27;;;;;;;75.57;31.88;;;;;;;;;;5080338;28;20560;-48
2023/01/18 14:25:57;;;;;;;72.80;31.90;;;;;;;;;;5076591;28;20036;-48
2023/01/18 14:28:31;;;;;;;94.53;33.20;;;;;;;;;;5075366;28;20059;-47
2023/01/18 14:31:02;;;;;;;80.22;32.03;;;;;;;;;;5082680;28;20059;-46
2023/01/18 14:33:29;;;;;;;93.15;31.27;;;;;;;;;;5078616;28;20145;-46
2023/01/18 14:35:57;;;;;;;91.20;34.83;;;;;;;;;;5080317;28;20045;-47
2023/01/18 14:38:24;;;;;;;79.05;33.00;;;;;;;;;;5077112;28;20043;-47
2023/01/18 14:40:52;;;;;;;71.45;30.05;;;;;;;;;;5077122;28;20040;-47
2023/01/18 14:43:45;;;;;;;83.97;32.42;;;;;;;;;;5078638;28;20039;-47
2023/01/18 14:46:16;;;;;;;67.75;27.77;;;;;;;;;;5074606;28;20420;-50
2023/01/18 14:48:53;;;;;;;87.15;31.25;;;;;;;;;;5077785;28;20041;-49
2023/01/18 14:51:23;;;;;;;88.50;32.10;;;;;;;;;;5077570;28;20040;-46
2023/01/18 14:53:56;;;;;;;107.82;36.85;;;;;;;;;;5079848;28;20440;-47
2023/01/18 14:56:24;;;;;;;78.72;31.30;;;;;;;;;;5081874;28;20040;-46
2023/01/18 14:58:53;;;;;;;84.72;33.13;;;;;;;;;;5074528;28;20092;-49
2023/01/18 15:01:30;;;;;;;95.20;35.45;;;;;;;;;;5079663;28;20404;-47
2023/01/18 15:03:58;;;;;;;75.78;29.38;;;;;;;;;;5077948;28;20570;-47